Terminal Aerodrome Forecast
Issued by NWS

Home | Current Version | Previous Version | Text Only | Print | Product List | Glossary On
Versions: 1 2 3 4 5 6 7 8 9 10 11 12 13 14 15 16
000
FTUS41 KBTV 180522
TAFMSS
TAF
KMSS 180522Z 1806/1906 00000KT P6SM SCT120 SCT250
     FM181400 07006KT P6SM BKN100
     FM182000 06006KT P6SM VCSH OVC035
     FM190100 07006KT 4SM -RA BR OVC025
     FM190300 07006KT 2SM -RA BR OVC015=

USA.gov is the U.S. government's official web portal to all federal, state and local government web resources and services.